»·PEaware :: N427LJ KOLM-KBFI

N427LJ :: KOLM-KBFI

FLIGHT INFORMATION

Flight Status: Arrived
Operator: Privately registered:
United States
More flights under this callsign
Pilot: Anonymous 27948 (27948)
Aircraft: CESSNA 172 SKYHAWK
(C172)
More flights by this aircraft type
Origin: KOLM Olympia
United States
Destination: KBFI Boeing Field/King Co Intl
United States
More flights between these airports :: More routes between these airports
Route: + YELM5 YELM
File this flight plan on PilotEdge
Remarks:
Altitude:
(Current/Filed)
5,000ft
Speed:
(Current/Filed)
120kts
Departed: 06-Jun-20 08:32 AM
Arrived: 06-Jun-20 09:11 AM
Distance/Time
Traveled:
41nm/0:38
Distance/Time
To Go:
Arrived

Flight Plot

Page will automatically refresh every two minutes.

Flight plan parsing failed; only flown route is shown


Map Options




Map Legend


Flown Route
Filed Route
Departure Airport
Arrival Airport
Navaid (VOR, NDB)
Fix

Horizontal Profiles

Position Reports

Time Latitude Longitude Heading Altitude Ground
Speed
06-Jun-20 08:10 46.975742 -122.898847 281 196ft 0kts
06-Jun-20 08:11 46.975742 -122.898847 281 196ft 0kts
06-Jun-20 08:12 46.975742 -122.898847 281 196ft 0kts
06-Jun-20 08:13 46.975742 -122.898847 281 196ft 0kts
06-Jun-20 08:14 46.975742 -122.898847 281 196ft 0kts
06-Jun-20 08:15 46.975742 -122.898847 281 196ft 0kts
06-Jun-20 08:16 46.975742 -122.898847 281 196ft 0kts
06-Jun-20 08:17 46.975742 -122.898847 281 196ft 0kts
06-Jun-20 08:18 46.975742 -122.898847 281 196ft 0kts
06-Jun-20 08:19 46.975742 -122.898847 281 196ft 0kts
06-Jun-20 08:20 46.975742 -122.898847 281 196ft 0kts
06-Jun-20 08:21 46.975742 -122.898847 281 196ft 0kts
06-Jun-20 08:22 46.975742 -122.898847 281 196ft 0kts
06-Jun-20 08:23 46.975742 -122.898847 281 196ft 0kts
06-Jun-20 08:24 46.975742 -122.898847 281 196ft 0kts
06-Jun-20 08:25 46.975742 -122.898847 281 196ft 0kts
06-Jun-20 08:26 46.975742 -122.898847 281 196ft 0kts
06-Jun-20 08:27 46.975742 -122.898847 281 196ft 0kts
06-Jun-20 08:28 46.975748 -122.898894 281 196ft 2kts
06-Jun-20 08:29 46.976134 -122.901079 280 195ft 0kts
06-Jun-20 08:30 46.976134 -122.901079 280 195ft 0kts
06-Jun-20 08:31 46.973018 -122.903405 190 201ft 69kts
06-Jun-20 08:32 46.955959 -122.897852 94 1234ft 72kts
06-Jun-20 08:33 46.959433 -122.867627 78 2188ft 77kts
06-Jun-20 08:34 46.963531 -122.836581 78 3064ft 81kts
06-Jun-20 08:35 46.968852 -122.795251 79 3092ft 113kts
06-Jun-20 08:36 46.974740 -122.749347 78 3192ft 115kts
06-Jun-20 08:37 46.980570 -122.704086 78 3790ft 111kts
06-Jun-20 08:38 46.993291 -122.668423 16 4510ft 101kts
06-Jun-20 08:39 47.020336 -122.657750 14 5093ft 112kts
06-Jun-20 08:40 47.052737 -122.645036 14 5091ft 122kts
06-Jun-20 08:41 47.085907 -122.632000 14 5091ft 123kts
06-Jun-20 08:42 47.119005 -122.618980 14 5091ft 123kts
06-Jun-20 08:43 47.151962 -122.606002 14 5091ft 123kts
06-Jun-20 08:44 47.184998 -122.592981 14 5091ft 123kts
06-Jun-20 08:45 47.217960 -122.579976 14 5091ft 123kts
06-Jun-20 08:47 47.250992 -122.566931 14 5091ft 123kts
06-Jun-20 08:48 47.283950 -122.553903 14 5091ft 123kts
06-Jun-20 08:49 47.316958 -122.540841 14 5091ft 123kts
06-Jun-20 08:50 47.349970 -122.527766 14 5091ft 123kts
06-Jun-20 08:51 47.382937 -122.514696 14 5091ft 123kts
06-Jun-20 08:52 47.416003 -122.501573 14 5091ft 123kts
06-Jun-20 08:53 47.449011 -122.488461 14 5091ft 123kts
06-Jun-20 08:54 47.481963 -122.475359 14 5091ft 123kts
06-Jun-20 08:55 47.515075 -122.468419 345 4927ft 119kts
06-Jun-20 08:56 47.546200 -122.480512 344 3963ft 116kts
06-Jun-20 08:57 47.577214 -122.492654 344 3102ft 112kts
06-Jun-20 08:58 47.607118 -122.504382 344 3091ft 111kts
06-Jun-20 08:59 47.637093 -122.516132 344 3091ft 111kts
06-Jun-20 09:00 47.666904 -122.527819 344 3108ft 109kts
06-Jun-20 09:01 47.688609 -122.509683 65 3110ft 105kts
06-Jun-20 09:01 47.698658 -122.476352 65 3109ft 106kts
06-Jun-20 09:03 47.697890 -122.432991 153 3110ft 106kts
06-Jun-20 09:04 47.670661 -122.419905 154 2920ft 99kts
06-Jun-20 09:04 47.650904 -122.404670 150 2516ft 94kts
06-Jun-20 09:06 47.624312 -122.382313 149 1932ft 95kts
06-Jun-20 09:06 47.605520 -122.366436 150 1505ft 91kts
06-Jun-20 09:08 47.580148 -122.344912 150 935ft 89kts
06-Jun-20 09:08 47.562959 -122.330377 150 553ft 75kts
06-Jun-20 09:09 47.545702 -122.315614 150 159ft 69kts
06-Jun-20 09:10 47.534303 -122.306176 167 17ft 12kts
06-Jun-20 09:11 47.533588 -122.306870 237 14ft 0kts
06-Jun-20 09:12 47.532105 -122.305764 149 14ft 18kts
06-Jun-20 09:13 47.527330 -122.301733 151 14ft 18kts
06-Jun-20 09:14 47.526311 -122.301824 154 14ft 0kts

Navigation Log

Ident Type
Flight plan parsing failed, navigation log unavailable